Time;durP1;ratioP1;P1;durP2;ratioP2;P2;SDS_P1;SDS_P2;PMS_P1;PMS_P2;Temp;Humidity;BMP_temperature;BMP_pressure;BME280_temperature;BME280_humidity;BME280_pressure;Samples;Min_cycle;Max_cycle;Signal;HPM_P1;HPM_P2
2023/11/24 00:01:40;;;;;;;11.60;2.97;;;;;;;;;;5095151;28;20970;-59
2023/11/24 00:04:07;;;;;;;6.03;2.13;;;;;;;;;;5095223;28;20442;-60
2023/11/24 00:06:34;;;;;;;5.67;1.97;;;;;;;;;;5095157;28;20538;-59
2023/11/24 00:09:01;;;;;;;9.03;3.03;;;;;;;;;;5094874;28;20539;-60
2023/11/24 00:11:29;;;;;;;6.70;2.00;;;;;;;;;;5094613;28;20529;-59
2023/11/24 00:13:56;;;;;;;12.80;4.20;;;;;;;;;;5094620;28;20449;-60
2023/11/24 00:16:23;;;;;;;10.53;2.10;;;;;;;;;;5094477;28;20553;-60
2023/11/24 00:18:50;;;;;;;7.10;2.23;;;;;;;;;;5094665;28;20451;-60
2023/11/24 00:21:17;;;;;;;6.40;2.07;;;;;;;;;;5094578;28;20858;-60
2023/11/24 00:23:45;;;;;;;7.63;1.93;;;;;;;;;;5094685;28;21032;-60
2023/11/24 00:26:12;;;;;;;7.90;2.30;;;;;;;;;;5094303;28;20439;-59
2023/11/24 00:28:40;;;;;;;7.70;1.70;;;;;;;;;;5094507;28;20438;-59
2023/11/24 00:31:08;;;;;;;9.03;2.07;;;;;;;;;;5094464;28;20530;-60
2023/11/24 00:33:35;;;;;;;7.33;2.03;;;;;;;;;;5094251;28;20888;-60
2023/11/24 00:36:02;;;;;;;6.37;2.20;;;;;;;;;;5094206;28;20446;-60
2023/11/24 00:38:29;;;;;;;7.17;2.90;;;;;;;;;;5094094;28;20547;-60
2023/11/24 00:40:56;;;;;;;8.27;2.23;;;;;;;;;;5094054;28;20478;-60
2023/11/24 00:43:23;;;;;;;4.50;1.90;;;;;;;;;;5094303;28;20851;-60
2023/11/24 00:45:53;;;;;;;9.63;2.37;;;;;;;;;;5093957;28;20446;-60
2023/11/24 00:48:22;;;;;;;10.60;2.40;;;;;;;;;;5093871;28;20937;-60
2023/11/24 00:50:50;;;;;;;7.27;1.77;;;;;;;;;;5094004;28;20449;-60
2023/11/24 00:53:17;;;;;;;4.40;2.43;;;;;;;;;;5093851;28;20474;-60
2023/11/24 00:55:44;;;;;;;6.50;1.87;;;;;;;;;;5094120;28;20531;-60
2023/11/24 00:58:11;;;;;;;9.17;1.80;;;;;;;;;;5093921;28;20442;-60
2023/11/24 01:00:38;;;;;;;13.37;3.50;;;;;;;;;;5093900;28;20447;-60
2023/11/24 01:03:08;;;;;;;9.07;2.10;;;;;;;;;;5093766;28;20450;-60
2023/11/24 01:05:35;;;;;;;12.00;2.17;;;;;;;;;;5093757;28;20446;-60
2023/11/24 01:08:02;;;;;;;12.83;2.20;;;;;;;;;;5093509;28;20442;-60
2023/11/24 01:10:29;;;;;;;13.17;2.47;;;;;;;;;;5093805;28;20488;-60
2023/11/24 01:12:58;;;;;;;12.03;2.63;;;;;;;;;;5093644;28;20592;-60
2023/11/24 01:15:25;;;;;;;9.17;2.70;;;;;;;;;;5093543;28;20474;-60
2023/11/24 01:17:54;;;;;;;7.13;2.10;;;;;;;;;;5093545;28;20529;-60
2023/11/24 01:20:22;;;;;;;10.10;2.10;;;;;;;;;;5093403;28;20438;-60
2023/11/24 01:22:49;;;;;;;9.37;2.00;;;;;;;;;;5093609;28;20534;-60
2023/11/24 01:25:16;;;;;;;6.00;2.37;;;;;;;;;;5093534;28;20454;-60
2023/11/24 01:27:43;;;;;;;9.40;1.90;;;;;;;;;;5093443;28;20534;-60
2023/11/24 01:30:11;;;;;;;6.40;2.10;;;;;;;;;;5093391;28;20449;-60
2023/11/24 01:32:38;;;;;;;8.63;1.90;;;;;;;;;;5093199;28;20517;-59
2023/11/24 01:35:05;;;;;;;6.00;2.20;;;;;;;;;;5093186;28;20474;-60
2023/11/24 01:37:33;;;;;;;8.27;2.03;;;;;;;;;;5093280;28;20533;-60
2023/11/24 01:40:00;;;;;;;10.27;2.43;;;;;;;;;;5093272;28;20446;-61
2023/11/24 01:42:27;;;;;;;9.83;3.00;;;;;;;;;;5093210;28;20507;-60
2023/11/24 01:44:54;;;;;;;8.13;2.80;;;;;;;;;;5093167;28;20530;-60
2023/11/24 01:47:22;;;;;;;9.43;2.17;;;;;;;;;;5093063;28;20456;-60
2023/11/24 01:49:49;;;;;;;8.50;2.00;;;;;;;;;;5093053;28;20445;-60
2023/11/24 01:52:16;;;;;;;11.80;1.90;;;;;;;;;;5093211;28;20470;-60
2023/11/24 01:54:47;;;;;;;7.10;2.10;;;;;;;;;;5093151;28;20442;-60
2023/11/24 01:57:14;;;;;;;8.43;1.87;;;;;;;;;;5093154;28;20511;-60
2023/11/24 01:59:41;;;;;;;12.10;3.00;;;;;;;;;;5096308;28;20450;-60
2023/11/24 02:02:09;;;;;;;14.13;2.60;;;;;;;;;;5097136;28;20894;-60
2023/11/24 02:04:36;;;;;;;6.27;1.73;;;;;;;;;;5097413;28;20481;-60
2023/11/24 02:07:04;;;;;;;4.43;1.57;;;;;;;;;;5097244;28;20442;-60
2023/11/24 02:09:31;;;;;;;4.73;1.33;;;;;;;;;;5097130;28;20530;-60
2023/11/24 02:11:59;;;;;;;5.23;1.80;;;;;;;;;;5097157;28;20442;-60
2023/11/24 02:14:28;;;;;;;4.30;1.40;;;;;;;;;;5096938;28;20538;-59
2023/11/24 02:16:55;;;;;;;4.60;1.20;;;;;;;;;;5096848;28;20519;-59
2023/11/24 02:19:22;;;;;;;3.78;1.17;;;;;;;;;;5097012;28;20485;-59
2023/11/24 02:21:49;;;;;;;4.73;1.30;;;;;;;;;;5096746;28;20644;-60
2023/11/24 02:24:17;;;;;;;3.25;1.33;;;;;;;;;;5096828;28;20442;-59
2023/11/24 02:26:44;;;;;;;0.90;0.60;;;;;;;;;;5096754;28;20739;-59
2023/11/24 02:29:12;;;;;;;7.65;1.17;;;;;;;;;;5096611;28;20235;-60
2023/11/24 02:31:39;;;;;;;2.93;0.77;;;;;;;;;;5097139;28;20192;-59
2023/11/24 02:34:07;;;;;;;4.47;1.20;;;;;;;;;;5096985;28;20482;-59
2023/11/24 02:36:36;;;;;;;3.20;0.90;;;;;;;;;;5096699;28;20474;-60
2023/11/24 02:39:03;;;;;;;1.75;0.63;;;;;;;;;;5096335;28;20447;-59
2023/11/24 02:41:32;;;;;;;3.30;0.97;;;;;;;;;;5096531;28;20195;-59
2023/11/24 02:43:59;;;;;;;1.67;1.00;;;;;;;;;;5096393;28;20963;-60
2023/11/24 02:46:26;;;;;;;1.17;0.82;;;;;;;;;;5096592;28;20204;-59
2023/11/24 02:48:53;;;;;;;1.97;0.70;;;;;;;;;;5096422;28;20275;-60
2023/11/24 02:51:20;;;;;;;3.60;1.20;;;;;;;;;;5096417;28;20447;-60
2023/11/24 02:53:47;;;;;;;1.27;0.82;;;;;;;;;;5096217;28;20482;-59
2023/11/24 02:56:14;;;;;;;1.65;0.75;;;;;;;;;;5096130;28;20220;-60
2023/11/24 02:58:42;;;;;;;2.33;0.83;;;;;;;;;;5096215;28;20280;-59
2023/11/24 03:01:10;;;;;;;4.53;1.10;;;;;;;;;;5096246;28;20474;-59
2023/11/24 03:03:38;;;;;;;4.13;1.00;;;;;;;;;;5096118;28;20474;-60
2023/11/24 03:06:05;;;;;;;3.35;1.10;;;;;;;;;;5095751;28;20446;-59
2023/11/24 03:08:32;;;;;;;4.50;0.90;;;;;;;;;;5095949;28;20189;-60
2023/11/24 03:11:00;;;;;;;6.57;1.15;;;;;;;;;;5095827;28;20629;-60
2023/11/24 03:13:27;;;;;;;3.95;1.23;;;;;;;;;;5095977;28;20216;-60
2023/11/24 03:15:55;;;;;;;2.90;1.20;;;;;;;;;;5095868;28;20225;-59
2023/11/24 03:18:23;;;;;;;7.55;1.38;;;;;;;;;;5095793;28;20189;-59
2023/11/24 03:20:50;;;;;;;2.58;1.65;;;;;;;;;;5095775;28;20329;-60
2023/11/24 03:23:18;;;;;;;6.13;1.10;;;;;;;;;;5095656;28;20224;-59
2023/11/24 03:25:44;;;;;;;4.78;1.85;;;;;;;;;;5095621;28;20192;-60
2023/11/24 03:28:12;;;;;;;5.70;1.83;;;;;;;;;;5095656;28;20220;-59
2023/11/24 03:30:39;;;;;;;10.35;1.70;;;;;;;;;;5095655;28;20495;-60
2023/11/24 03:33:07;;;;;;;6.37;1.57;;;;;;;;;;5095353;28;20679;-59
2023/11/24 03:35:35;;;;;;;6.40;1.27;;;;;;;;;;5095464;28;20848;-60
2023/11/24 03:38:02;;;;;;;5.32;1.40;;;;;;;;;;5095239;28;20575;-60
2023/11/24 03:40:29;;;;;;;5.78;1.77;;;;;;;;;;5095534;28;20188;-60
2023/11/24 03:42:55;;;;;;;5.77;1.57;;;;;;;;;;5095462;28;20224;-60
2023/11/24 03:45:22;;;;;;;8.65;1.70;;;;;;;;;;5095321;28;20949;-59
2023/11/24 03:47:50;;;;;;;5.05;1.70;;;;;;;;;;5095181;28;20801;-60
2023/11/24 03:50:18;;;;;;;5.07;1.67;;;;;;;;;;5095182;28;20225;-59
2023/11/24 03:52:45;;;;;;;7.53;1.65;;;;;;;;;;5094903;28;20208;-60
2023/11/24 03:55:12;;;;;;;8.00;2.10;;;;;;;;;;5095216;28;20188;-60
2023/11/24 03:57:39;;;;;;;6.33;1.53;;;;;;;;;;5095056;28;20446;-60
2023/11/24 04:00:08;;;;;;;6.13;1.97;;;;;;;;;;5095088;28;20453;-60
2023/11/24 04:02:35;;;;;;;7.63;2.33;;;;;;;;;;5094957;28;20813;-60
2023/11/24 04:05:02;;;;;;;4.70;2.00;;;;;;;;;;5094757;28;20988;-60
2023/11/24 04:07:30;;;;;;;5.63;1.93;;;;;;;;;;5095173;28;20537;-59
2023/11/24 04:09:57;;;;;;;11.85;2.50;;;;;;;;;;5094872;28;20553;-60
2023/11/24 04:12:25;;;;;;;12.75;3.05;;;;;;;;;;5094821;28;20279;-60
2023/11/24 04:14:52;;;;;;;4.00;1.87;;;;;;;;;;5094899;28;20196;-60
2023/11/24 04:17:19;;;;;;;10.68;2.58;;;;;;;;;;5094402;28;20880;-60
2023/11/24 04:19:46;;;;;;;12.50;2.60;;;;;;;;;;5094522;28;20189;-60
2023/11/24 04:22:13;;;;;;;11.38;2.78;;;;;;;;;;5094273;28;20275;-60
2023/11/24 04:24:41;;;;;;;8.00;2.13;;;;;;;;;;5094600;28;20188;-60
2023/11/24 04:27:08;;;;;;;8.00;1.87;;;;;;;;;;5094461;28;21021;-60
2023/11/24 04:29:36;;;;;;;7.27;1.47;;;;;;;;;;5094424;28;20454;-60
2023/11/24 04:32:03;;;;;;;8.43;2.50;;;;;;;;;;5094210;28;20938;-60
2023/11/24 04:34:29;;;;;;;11.90;3.77;;;;;;;;;;5094082;28;21043;-60
2023/11/24 04:36:56;;;;;;;15.15;2.13;;;;;;;;;;5094182;28;20485;-59
2023/11/24 04:39:24;;;;;;;4.13;1.57;;;;;;;;;;5094329;28;20199;-60
2023/11/24 04:41:53;;;;;;;11.30;2.03;;;;;;;;;;5094419;28;20490;-60
2023/11/24 04:44:20;;;;;;;13.10;1.57;;;;;;;;;;5094140;28;20558;-59
2023/11/24 04:46:47;;;;;;;6.43;1.60;;;;;;;;;;5094025;28;20447;-59
2023/11/24 04:49:13;;;;;;;3.65;1.48;;;;;;;;;;5094066;28;20470;-59
2023/11/24 04:51:40;;;;;;;4.90;1.03;;;;;;;;;;5094057;28;20191;-59
2023/11/24 04:54:07;;;;;;;3.40;1.10;;;;;;;;;;5093981;28;20524;-60
2023/11/24 04:56:34;;;;;;;1.73;1.23;;;;;;;;;;5093942;28;20442;-59
2023/11/24 04:59:04;;;;;;;2.92;1.00;;;;;;;;;;5093886;28;20611;-60
2023/11/24 05:01:31;;;;;;;2.90;0.77;;;;;;;;;;5094211;28;20234;-59
2023/11/24 05:03:59;;;;;;;3.10;0.90;;;;;;;;;;5093942;28;20241;-59
2023/11/24 05:06:26;;;;;;;2.22;0.80;;;;;;;;;;5093868;28;20556;-59
2023/11/24 05:08:53;;;;;;;3.28;1.35;;;;;;;;;;5093531;28;20651;-60
2023/11/24 05:11:21;;;;;;;2.55;2.00;;;;;;;;;;5093615;28;20212;-59
2023/11/24 05:13:49;;;;;;;3.28;1.17;;;;;;;;;;5093345;28;20707;-59
2023/11/24 05:16:17;;;;;;;1.73;0.70;;;;;;;;;;5093585;28;20706;-59
2023/11/24 05:18:44;;;;;;;3.15;1.15;;;;;;;;;;5093446;28;20191;-60
2023/11/24 05:21:11;;;;;;;2.92;1.10;;;;;;;;;;5093450;28;20192;-60
2023/11/24 05:23:38;;;;;;;3.88;0.90;;;;;;;;;;5093448;28;20200;-60
2023/11/24 05:26:05;;;;;;;5.80;1.00;;;;;;;;;;5093390;28;20193;-59
2023/11/24 05:28:33;;;;;;;2.65;1.00;;;;;;;;;;5093230;28;20193;-59
2023/11/24 05:31:03;;;;;;;9.15;1.30;;;;;;;;;;5093464;28;20223;-59
2023/11/24 05:33:32;;;;;;;5.25;1.45;;;;;;;;;;5092465;28;20212;-59
2023/11/24 05:35:59;;;;;;;4.68;1.35;;;;;;;;;;5093291;28;20228;-59
2023/11/24 05:38:26;;;;;;;7.03;1.30;;;;;;;;;;5093038;28;20728;-60
2023/11/24 05:40:53;;;;;;;3.15;1.20;;;;;;;;;;5093073;28;20549;-60
2023/11/24 05:43:20;;;;;;;4.53;1.60;;;;;;;;;;5093321;28;20283;-59
2023/11/24 05:45:47;;;;;;;11.48;2.10;;;;;;;;;;5093265;28;20237;-59
2023/11/24 05:48:14;;;;;;;6.07;1.20;;;;;;;;;;5093075;28;20435;-60
2023/11/24 05:50:42;;;;;;;5.00;1.50;;;;;;;;;;5093162;28;20192;-60
2023/11/24 05:53:09;;;;;;;5.85;1.80;;;;;;;;;;5093106;28;20706;-60
2023/11/24 05:55:36;;;;;;;8.05;1.40;;;;;;;;;;5093056;28;20283;-59
2023/11/24 05:58:05;;;;;;;9.57;2.17;;;;;;;;;;5093072;28;20275;-59
2023/11/24 06:00:32;;;;;;;4.55;1.40;;;;;;;;;;5092947;28;20284;-60
2023/11/24 06:02:59;;;;;;;11.30;2.13;;;;;;;;;;5092926;28;20227;-60
2023/11/24 06:05:26;;;;;;;7.43;2.03;;;;;;;;;;5092913;28;20199;-60
2023/11/24 06:07:55;;;;;;;4.97;1.15;;;;;;;;;;5092775;28;20191;-60
2023/11/24 06:10:22;;;;;;;3.67;1.40;;;;;;;;;;5093008;28;20215;-60
2023/11/24 06:12:49;;;;;;;2.75;1.00;;;;;;;;;;5092948;28;20299;-60
2023/11/24 06:15:16;;;;;;;3.60;1.20;;;;;;;;;;5092534;28;20673;-60
2023/11/24 06:17:43;;;;;;;5.90;1.33;;;;;;;;;;5092773;28;20279;-60
2023/11/24 06:20:11;;;;;;;6.97;1.60;;;;;;;;;;5092821;28;20195;-60
2023/11/24 06:22:38;;;;;;;8.98;1.75;;;;;;;;;;5092499;28;20196;-60
2023/11/24 06:25:08;;;;;;;3.15;1.70;;;;;;;;;;5092958;28;20188;-60
2023/11/24 06:27:36;;;;;;;3.05;1.25;;;;;;;;;;5092733;28;20216;-59
2023/11/24 06:30:05;;;;;;;6.68;1.90;;;;;;;;;;5092533;28;20706;-60
2023/11/24 06:32:32;;;;;;;3.95;1.70;;;;;;;;;;5092604;28;20618;-60
2023/11/24 06:34:59;;;;;;;4.70;1.30;;;;;;;;;;5092647;28;20217;-60
2023/11/24 06:37:26;;;;;;;4.32;1.50;;;;;;;;;;5092794;28;20223;-59
2023/11/24 06:39:53;;;;;;;1.63;1.20;;;;;;;;;;5092728;28;20245;-59
2023/11/24 06:42:21;;;;;;;4.80;1.40;;;;;;;;;;5092744;28;20873;-60
2023/11/24 06:44:48;;;;;;;5.83;1.63;;;;;;;;;;5093981;28;20618;-60
2023/11/24 06:47:15;;;;;;;8.15;2.08;;;;;;;;;;5096210;28;20537;-60
2023/11/24 06:49:42;;;;;;;7.07;1.35;;;;;;;;;;5096180;28;20666;-60
2023/11/24 06:52:09;;;;;;;5.32;1.42;;;;;;;;;;5096379;28;20195;-60
2023/11/24 06:54:36;;;;;;;7.47;1.40;;;;;;;;;;5096252;28;20226;-60
2023/11/24 06:57:04;;;;;;;2.50;1.63;;;;;;;;;;5096255;28;20864;-60
2023/11/24 06:59:32;;;;;;;3.58;1.50;;;;;;;;;;5096220;28;20453;-60
2023/11/24 07:01:59;;;;;;;2.53;1.70;;;;;;;;;;5095988;28;20280;-60
2023/11/24 07:04:26;;;;;;;5.95;1.35;;;;;;;;;;5096049;28;20291;-59
2023/11/24 07:06:53;;;;;;;8.50;1.90;;;;;;;;;;5095937;28;20193;-60
2023/11/24 07:09:21;;;;;;;3.85;1.75;;;;;;;;;;5096197;28;20184;-60
2023/11/24 07:11:48;;;;;;;5.20;1.27;;;;;;;;;;5095985;28;20245;-60
2023/11/24 07:14:15;;;;;;;3.92;1.40;;;;;;;;;;5095652;28;20208;-59
2023/11/24 07:16:43;;;;;;;7.15;1.60;;;;;;;;;;5095733;28;20307;-59
2023/11/24 07:19:11;;;;;;;4.68;1.83;;;;;;;;;;5095886;28;20275;-59
2023/11/24 07:21:38;;;;;;;8.45;2.47;;;;;;;;;;5095771;28;20189;-59
2023/11/24 07:24:06;;;;;;;7.10;2.30;;;;;;;;;;5095723;28;20188;-60
2023/11/24 07:26:33;;;;;;;7.70;3.17;;;;;;;;;;5095623;28;20188;-59
2023/11/24 07:29:00;;;;;;;5.87;3.00;;;;;;;;;;5095539;28;20552;-59
2023/11/24 07:31:28;;;;;;;8.20;2.00;;;;;;;;;;5095259;28;20537;-59
2023/11/24 07:33:56;;;;;;;6.90;1.98;;;;;;;;;;5095232;28;20254;-60
2023/11/24 07:36:23;;;;;;;4.65;1.63;;;;;;;;;;5095337;28;20271;-59
2023/11/24 07:38:50;;;;;;;6.13;1.50;;;;;;;;;;5095342;28;20276;-59
2023/11/24 07:41:17;;;;;;;8.25;1.50;;;;;;;;;;5095354;28;20189;-59
2023/11/24 07:43:44;;;;;;;6.65;1.77;;;;;;;;;;5095162;28;20648;-60
2023/11/24 07:46:11;;;;;;;9.70;1.80;;;;;;;;;;5095431;28;20295;-60
2023/11/24 07:48:38;;;;;;;6.38;1.98;;;;;;;;;;5095218;28;20612;-59
2023/11/24 07:51:06;;;;;;;8.88;1.88;;;;;;;;;;5095127;28;20184;-59
2023/11/24 07:53:34;;;;;;;7.35;2.00;;;;;;;;;;5095186;28;20271;-59
2023/11/24 07:56:01;;;;;;;6.15;1.50;;;;;;;;;;5094186;28;20279;-59
2023/11/24 07:58:29;;;;;;;12.43;1.90;;;;;;;;;;5094738;28;20629;-60
2023/11/24 08:00:56;;;;;;;5.20;1.70;;;;;;;;;;5094885;28;20189;-60
2023/11/24 08:03:24;;;;;;;5.78;2.47;;;;;;;;;;5095036;28;20283;-60
2023/11/24 08:05:52;;;;;;;8.00;2.20;;;;;;;;;;5090841;28;20279;-61
2023/11/24 08:08:22;;;;;;;11.23;1.85;;;;;;;;;;5074163;28;20199;-60
2023/11/24 08:10:49;;;;;;;8.37;2.70;;;;;;;;;;5074318;28;20563;-61
2023/11/24 08:13:16;;;;;;;11.02;2.25;;;;;;;;;;5074485;28;20444;-61
2023/11/24 08:15:43;;;;;;;4.07;1.63;;;;;;;;;;5074240;28;20260;-61
2023/11/24 08:18:10;;;;;;;19.05;3.08;;;;;;;;;;5074544;28;20217;-61
2023/11/24 08:20:37;;;;;;;6.20;2.10;;;;;;;;;;5074201;28;20475;-61
2023/11/24 08:23:04;;;;;;;13.27;2.75;;;;;;;;;;5074106;28;20209;-60
2023/11/24 08:25:32;;;;;;;8.45;1.83;;;;;;;;;;5073796;28;20220;-61
2023/11/24 08:27:59;;;;;;;13.23;3.40;;;;;;;;;;5074120;28;20228;-61
2023/11/24 08:30:26;;;;;;;8.30;1.55;;;;;;;;;;5073906;28;20236;-63
2023/11/24 08:32:53;;;;;;;6.82;1.42;;;;;;;;;;5073993;28;20193;-58
2023/11/24 08:35:20;;;;;;;5.40;1.48;;;;;;;;;;5073726;28;20388;-57
2023/11/24 08:37:47;;;;;;;4.67;1.83;;;;;;;;;;5073728;28;20280;-58
2023/11/24 08:40:16;;;;;;;14.23;1.73;;;;;;;;;;5073780;28;20863;-58
2023/11/24 08:42:45;;;;;;;7.13;1.97;;;;;;;;;;5073979;28;20189;-58
2023/11/24 08:45:14;;;;;;;9.87;3.27;;;;;;;;;;5073826;28;20534;-58
2023/11/24 08:47:41;;;;;;;4.60;1.83;;;;;;;;;;5073683;28;20451;-58
2023/11/24 08:50:10;;;;;;;5.33;1.80;;;;;;;;;;5073602;28;20450;-58
2023/11/24 08:52:37;;;;;;;4.67;1.40;;;;;;;;;;5073488;28;20448;-60
2023/11/24 08:55:05;;;;;;;4.53;1.75;;;;;;;;;;5073397;28;20475;-62
2023/11/24 08:57:32;;;;;;;5.32;1.30;;;;;;;;;;5073303;28;20196;-66
2023/11/24 09:00:01;;;;;;;8.10;1.67;;;;;;;;;;5073344;28;20193;-68
2023/11/24 09:02:29;;;;;;;7.93;1.73;;;;;;;;;;5073292;28;20538;-58
2023/11/24 09:04:56;;;;;;;5.80;1.53;;;;;;;;;;5073261;28;20788;-57
2023/11/24 09:07:23;;;;;;;4.43;1.50;;;;;;;;;;5072912;28;20795;-61
2023/11/24 09:09:50;;;;;;;5.20;1.60;;;;;;;;;;5073394;28;20192;-61
2023/11/24 09:12:17;;;;;;;7.97;1.57;;;;;;;;;;5073120;28;20482;-60
2023/11/24 09:14:44;;;;;;;7.60;1.80;;;;;;;;;;5073039;28;20478;-60
2023/11/24 09:17:13;;;;;;;8.33;2.13;;;;;;;;;;5072902;28;20560;-60
2023/11/24 09:19:40;;;;;;;4.13;1.40;;;;;;;;;;5072984;28;20459;-57
2023/11/24 09:22:07;;;;;;;3.60;1.50;;;;;;;;;;5073255;28;20458;-58
2023/11/24 09:24:34;;;;;;;8.17;2.07;;;;;;;;;;5073143;28;20189;-60
2023/11/24 09:27:01;;;;;;;5.47;1.40;;;;;;;;;;5073153;28;20452;-52
2023/11/24 09:29:28;;;;;;;7.78;1.20;;;;;;;;;;5072936;28;20443;-60
2023/11/24 09:31:57;;;;;;;4.93;1.30;;;;;;;;;;5072970;28;20260;-61
2023/11/24 09:34:28;;;;;;;5.75;1.40;;;;;;;;;;5072658;28;20443;-61
2023/11/24 09:36:55;;;;;;;3.83;1.55;;;;;;;;;;5072973;28;20238;-60
2023/11/24 09:39:26;;;;;;;6.67;1.53;;;;;;;;;;5072857;28;20277;-58
2023/11/24 09:41:53;;;;;;;5.73;1.77;;;;;;;;;;5073070;28;20439;-61
2023/11/24 09:44:21;;;;;;;5.13;1.13;;;;;;;;;;5072763;28;20478;-60
2023/11/24 09:46:49;;;;;;;7.03;1.93;;;;;;;;;;5072738;28;20490;-61
2023/11/24 09:49:16;;;;;;;6.60;1.47;;;;;;;;;;5072851;28;20450;-61
2023/11/24 09:51:45;;;;;;;4.30;1.37;;;;;;;;;;5072603;28;20954;-61
2023/11/24 09:54:12;;;;;;;8.57;1.40;;;;;;;;;;5072702;28;20443;-59
2023/11/24 09:56:43;;;;;;;6.10;1.37;;;;;;;;;;5072637;28;20623;-60
2023/11/24 09:59:10;;;;;;;5.63;1.65;;;;;;;;;;5072493;28;20807;-61
2023/11/24 10:01:37;;;;;;;7.00;1.90;;;;;;;;;;5072860;28;20185;-58
2023/11/24 10:04:06;;;;;;;8.68;1.83;;;;;;;;;;5072624;28;20927;-57
2023/11/24 10:06:34;;;;;;;4.10;1.25;;;;;;;;;;5072528;28;20194;-61
2023/11/24 10:09:05;;;;;;;12.88;2.30;;;;;;;;;;5072533;28;20220;-61
2023/11/24 10:11:33;;;;;;;3.20;1.20;;;;;;;;;;5073035;28;20231;-61
2023/11/24 10:14:01;;;;;;;4.80;1.10;;;;;;;;;;5072492;28;20595;-59
2023/11/24 10:16:28;;;;;;;4.13;1.50;;;;;;;;;;5072534;28;20487;-59
2023/11/24 10:18:56;;;;;;;5.40;1.50;;;;;;;;;;5072752;28;20276;-60
2023/11/24 10:21:23;;;;;;;6.82;1.33;;;;;;;;;;5076460;28;20193;-61
2023/11/24 10:23:50;;;;;;;8.43;1.58;;;;;;;;;;5081340;28;20227;-58
2023/11/24 10:26:20;;;;;;;5.37;1.30;;;;;;;;;;5096604;28;20215;-57
2023/11/24 10:28:47;;;;;;;4.18;1.20;;;;;;;;;;5097127;28;20541;-63
2023/11/24 10:31:15;;;;;;;3.08;1.25;;;;;;;;;;5096628;28;20275;-58
2023/11/24 10:33:42;;;;;;;5.97;1.42;;;;;;;;;;5095631;28;20448;-60
2023/11/24 10:36:10;;;;;;;4.03;1.40;;;;;;;;;;5096243;28;20267;-59
2023/11/24 10:38:39;;;;;;;3.10;1.30;;;;;;;;;;5096314;28;20647;-59
2023/11/24 10:41:12;;;;;;;6.13;1.90;;;;;;;;;;5096551;28;20478;-54
2023/11/24 10:43:41;;;;;;;10.85;2.75;;;;;;;;;;5096350;28;20449;-57
2023/11/24 10:46:11;;;;;;;2.45;1.25;;;;;;;;;;5096370;28;20231;-56
2023/11/24 10:48:41;;;;;;;3.80;1.48;;;;;;;;;;5096185;28;20283;-63
2023/11/24 10:51:21;;;;;;;4.60;1.43;;;;;;;;;;5096176;28;20282;-63
2023/11/24 10:53:52;;;;;;;9.17;1.97;;;;;;;;;;5096325;28;20442;-60
2023/11/24 10:56:20;;;;;;;4.53;1.47;;;;;;;;;;5096162;28;20489;-59
2023/11/24 10:58:52;;;;;;;9.83;2.97;;;;;;;;;;5096180;28;20454;-59
2023/11/24 11:01:22;;;;;;;4.83;2.10;;;;;;;;;;5096007;28;20447;-59
2023/11/24 11:03:49;;;;;;;3.27;1.20;;;;;;;;;;5095857;28;20446;-60
2023/11/24 11:06:20;;;;;;;6.10;1.60;;;;;;;;;;5096080;28;20545;-60
2023/11/24 11:08:56;;;;;;;3.90;1.93;;;;;;;;;;5094429;28;20480;-60
2023/11/24 11:11:27;;;;;;;7.80;1.73;;;;;;;;;;5093845;28;20477;-59
2023/11/24 11:13:57;;;;;;;7.43;1.47;;;;;;;;;;5093487;28;20454;-59
2023/11/24 11:16:24;;;;;;;5.53;1.33;;;;;;;;;;5093431;28;20486;-59
2023/11/24 11:18:51;;;;;;;6.43;1.77;;;;;;;;;;5093910;28;21032;-60
2023/11/24 11:21:36;;;;;;;6.60;1.93;;;;;;;;;;5094030;28;20442;-59
2023/11/24 11:24:04;;;;;;;5.27;1.53;;;;;;;;;;5095193;28;20446;-59
2023/11/24 11:26:48;;;;;;;4.77;1.50;;;;;;;;;;5095487;28;21008;-59
2023/11/24 11:29:19;;;;;;;3.60;1.50;;;;;;;;;;5095446;28;20473;-59
2023/11/24 11:31:48;;;;;;;4.60;2.00;;;;;;;;;;5094215;28;20446;-62
2023/11/24 11:34:16;;;;;;;6.77;1.70;;;;;;;;;;5095304;28;20442;-60
2023/11/24 11:37:01;;;;;;;7.40;3.03;;;;;;;;;;5095314;28;20482;-61
2023/11/24 11:39:30;;;;;;;6.37;1.43;;;;;;;;;;5095136;28;20439;-61
2023/11/24 11:41:58;;;;;;;3.60;1.20;;;;;;;;;;5095320;28;20507;-63
2023/11/24 11:44:33;;;;;;;5.00;1.00;;;;;;;;;;5095204;28;20450;-61
2023/11/24 11:47:19;;;;;;;5.43;1.57;;;;;;;;;;5095115;28;20537;-60
2023/11/24 11:49:51;;;;;;;3.53;1.20;;;;;;;;;;5095024;28;20449;-61
2023/11/24 11:52:19;;;;;;;6.27;1.27;;;;;;;;;;5095149;28;20442;-61
2023/11/24 11:54:47;;;;;;;5.37;1.20;;;;;;;;;;5095120;28;20962;-64
2023/11/24 11:57:14;;;;;;;7.10;1.67;;;;;;;;;;5094847;28;20482;-62
2023/11/24 11:59:43;;;;;;;6.23;1.40;;;;;;;;;;5094956;28;20275;-62
2023/11/24 12:02:12;;;;;;;9.67;2.30;;;;;;;;;;5094775;28;20439;-62
2023/11/24 12:04:40;;;;;;;5.07;1.50;;;;;;;;;;5094346;28;20453;-62
2023/11/24 12:07:10;;;;;;;2.93;1.10;;;;;;;;;;5094805;28;20195;-62
2023/11/24 12:09:39;;;;;;;4.93;1.23;;;;;;;;;;5094731;28;20636;-62
2023/11/24 12:12:06;;;;;;;4.43;1.57;;;;;;;;;;5094627;28;20442;-62
2023/11/24 12:14:33;;;;;;;3.33;1.20;;;;;;;;;;5094502;28;21017;-62
2023/11/24 12:17:01;;;;;;;4.87;1.60;;;;;;;;;;5093727;28;20573;-62
2023/11/24 12:19:30;;;;;;;5.50;1.67;;;;;;;;;;5094416;28;21005;-62
2023/11/24 12:21:57;;;;;;;9.53;1.53;;;;;;;;;;5094551;28;20453;-62
2023/11/24 12:24:26;;;;;;;2.90;1.30;;;;;;;;;;5094510;28;20541;-62
2023/11/24 12:26:53;;;;;;;7.47;2.17;;;;;;;;;;5094453;28;20454;-62
2023/11/24 12:29:22;;;;;;;8.70;1.47;;;;;;;;;;5094246;28;20555;-62
2023/11/24 12:31:51;;;;;;;5.53;1.67;;;;;;;;;;5094420;28;20449;-62
2023/11/24 12:34:20;;;;;;;8.10;1.60;;;;;;;;;;5094378;28;20447;-62
2023/11/24 12:36:47;;;;;;;6.17;1.60;;;;;;;;;;5094219;28;20485;-62
2023/11/24 12:39:14;;;;;;;1.93;1.00;;;;;;;;;;5094206;28;20876;-62
2023/11/24 12:41:42;;;;;;;3.90;1.27;;;;;;;;;;5093785;28;20450;-62
2023/11/24 12:44:10;;;;;;;3.43;1.10;;;;;;;;;;5094118;28;20442;-62
2023/11/24 12:46:37;;;;;;;4.80;1.60;;;;;;;;;;5094153;28;20445;-62
2023/11/24 12:49:04;;;;;;;5.63;1.23;;;;;;;;;;5093998;28;20485;-62
2023/11/24 12:51:33;;;;;;;7.30;1.67;;;;;;;;;;5093971;28;20538;-62
2023/11/24 12:54:01;;;;;;;3.43;1.33;;;;;;;;;;5093883;28;20554;-62
2023/11/24 12:56:28;;;;;;;7.03;1.60;;;;;;;;;;5093653;28;20898;-62
2023/11/24 12:58:56;;;;;;;3.00;1.23;;;;;;;;;;5094006;28;20450;-62
2023/11/24 13:01:23;;;;;;;6.37;1.50;;;;;;;;;;5093833;28;20446;-62
2023/11/24 13:03:52;;;;;;;8.70;1.97;;;;;;;;;;5093895;28;20492;-62
2023/11/24 13:06:19;;;;;;;14.13;1.83;;;;;;;;;;5093524;28;20450;-62
2023/11/24 13:08:47;;;;;;;4.63;1.23;;;;;;;;;;5093450;28;20446;-62
2023/11/24 13:11:14;;;;;;;4.93;1.50;;;;;;;;;;5093656;28;20530;-62
2023/11/24 13:13:42;;;;;;;3.40;1.58;;;;;;;;;;5093479;28;20507;-62
2023/11/24 13:16:09;;;;;;;6.47;1.90;;;;;;;;;;5093459;28;20225;-60
2023/11/24 13:18:39;;;;;;;6.73;1.60;;;;;;;;;;5093372;28;20442;-61
2023/11/24 13:21:08;;;;;;;3.97;1.23;;;;;;;;;;5093468;28;20427;-61
2023/11/24 13:23:36;;;;;;;4.43;1.37;;;;;;;;;;5093386;28;20798;-61
2023/11/24 13:26:04;;;;;;;4.90;1.40;;;;;;;;;;5093431;28;20452;-61
2023/11/24 13:28:31;;;;;;;3.97;1.87;;;;;;;;;;5093404;28;20534;-61
2023/11/24 13:30:58;;;;;;;6.67;2.23;;;;;;;;;;5093286;28;20443;-61
2023/11/24 13:33:25;;;;;;;4.83;1.27;;;;;;;;;;5093268;28;20485;-61
2023/11/24 13:35:52;;;;;;;6.00;1.73;;;;;;;;;;5092940;28;20470;-61
2023/11/24 13:38:20;;;;;;;9.93;1.43;;;;;;;;;;5093204;28;20489;-61
2023/11/24 13:40:47;;;;;;;5.47;2.40;;;;;;;;;;5093255;28;20446;-61
2023/11/24 13:43:15;;;;;;;4.60;1.10;;;;;;;;;;5093153;28;20449;-62
2023/11/24 13:45:42;;;;;;;4.83;1.50;;;;;;;;;;5093104;28;20473;-61
2023/11/24 13:48:10;;;;;;;5.70;1.60;;;;;;;;;;5093022;28;20938;-61
2023/11/24 13:50:39;;;;;;;4.73;1.27;;;;;;;;;;5092763;28;20449;-61
2023/11/24 13:53:06;;;;;;;1.83;0.90;;;;;;;;;;5092907;28;20458;-63
2023/11/24 13:55:36;;;;;;;13.73;2.57;;;;;;;;;;5092264;28;20827;-62
2023/11/24 13:58:04;;;;;;;2.93;1.30;;;;;;;;;;5092813;28;20539;-60
2023/11/24 14:00:32;;;;;;;5.27;2.40;;;;;;;;;;5092856;28;20780;-62
2023/11/24 14:03:01;;;;;;;7.77;1.40;;;;;;;;;;5092743;28;20462;-63
2023/11/24 14:05:27;;;;;;;3.73;1.10;;;;;;;;;;5093070;28;20447;-65
2023/11/24 14:07:54;;;;;;;3.25;1.45;;;;;;;;;;5093027;28;20537;-61
2023/11/24 14:10:21;;;;;;;2.22;0.98;;;;;;;;;;5092962;28;20188;-61
2023/11/24 14:12:48;;;;;;;1.10;1.00;;;;;;;;;;5092594;28;20569;-61
2023/11/24 14:15:15;;;;;;;1.10;1.00;;;;;;;;;;5092583;28;20195;-62
2023/11/24 14:17:44;;;;;;;4.03;1.10;;;;;;;;;;5092875;28;20547;-62
2023/11/24 14:20:12;;;;;;;2.85;1.00;;;;;;;;;;5092903;28;20481;-62
2023/11/24 14:22:39;;;;;;;3.33;0.90;;;;;;;;;;5092434;28;20189;-61
2023/11/24 14:25:08;;;;;;;2.25;1.17;;;;;;;;;;5092521;28;20220;-62
2023/11/24 14:27:35;;;;;;;4.47;1.20;;;;;;;;;;5092661;28;20655;-62
2023/11/24 14:30:05;;;;;;;2.43;1.80;;;;;;;;;;5092516;28;20287;-62
2023/11/24 14:32:32;;;;;;;2.55;1.80;;;;;;;;;;5093005;28;20445;-62
2023/11/24 14:35:00;;;;;;;8.98;1.95;;;;;;;;;;5092816;28;20185;-62
2023/11/24 14:37:27;;;;;;;7.35;2.50;;;;;;;;;;5092553;28;20212;-61
2023/11/24 14:39:57;;;;;;;2.95;1.38;;;;;;;;;;5092617;28;20284;-62
2023/11/24 14:42:23;;;;;;;4.30;3.35;;;;;;;;;;5092450;28;20656;-62
2023/11/24 14:44:50;;;;;;;2.20;1.35;;;;;;;;;;5092673;28;20279;-61